TimeMST,TemperatureF,Dew PointF,Humidity,Sea Level PressureIn,VisibilityMPH,Wind Direction,Wind SpeedMPH,Gust SpeedMPH,PrecipitationIn,Events,Conditions,WindDirDegrees,DateUTC
12:40 AM,60.8,59.0,94,29.98,10.0,NE,4.6,-,N/A,,Clear,40,2012-11-28 07:40:00
1:41 AM,62.6,60.8,94,29.98,10.0,East,9.2,-,N/A,,Clear,80,2012-11-28 08:41:00
2:42 AM,62.6,60.8,94,29.98,10.0,NE,9.2,-,N/A,,Clear,50,2012-11-28 09:42:00
3:40 AM,60.8,59.0,94,29.99,10.0,NW,6.9,-,N/A,,Clear,320,2012-11-28 10:40:00
4:43 AM,60.8,59.0,94,29.97,10.0,NE,8.1,-,N/A,,Clear,40,2012-11-28 11:43:00
5:43 AM,60.8,59.0,94,30.00,10.0,NNE,8.1,-,N/A,,Scattered Clouds,20,2012-11-28 12:43:00
6:48 AM,60.8,57.2,88,30.03,10.0,NNE,6.9,-,N/A,,Partly Cloudy,20,2012-11-28 13:48:00
8:45 AM,69.8,64.4,83,30.07,10.0,NE,6.9,-,N/A,,Partly Cloudy,40,2012-11-28 15:45:00
9:50 AM,77.0,66.2,69,30.08,10.0,ESE,6.9,-,N/A,,Clear,110,2012-11-28 16:50:00
10:47 AM,80.6,66.2,61,30.06,12.0,ESE,6.9,-,N/A,,Clear,110,2012-11-28 17:47:00
11:45 AM,82.4,64.4,54,30.03,12.0,East,6.9,-,N/A,,Clear,90,2012-11-28 18:45:00
12:50 PM,84.2,64.4,51,30.00,12.0,WSW,11.5,-,N/A,,Clear,240,2012-11-28 19:50:00
1:46 PM,84.2,62.6,48,29.98,12.0,WSW,9.2,-,N/A,,Clear,240,2012-11-28 20:46:00
2:43 PM,86.0,60.8,43,29.96,15.0,WSW,10.4,-,N/A,,Clear,250,2012-11-28 21:43:00
3:41 PM,84.2,59.0,42,29.94,15.0,West,11.5,-,N/A,,Clear,270,2012-11-28 22:41:00
4:45 PM,80.6,55.4,42,29.94,12.0,West,13.8,-,N/A,,Scattered Clouds,270,2012-11-28 23:45:00
5:42 PM,75.2,57.2,53,29.97,10.0,West,11.5,-,N/A,,Scattered Clouds,280,2012-11-29 00:42:00
6:41 PM,71.6,57.2,60,29.99,10.0,NNW,8.1,-,N/A,,Scattered Clouds,330,2012-11-29 01:41:00
7:41 PM,69.8,55.4,60,29.98,10.0,NNW,6.9,-,N/A,,Clear,340,2012-11-29 02:41:00
8:40 PM,66.2,55.4,68,29.99,10.0,West,6.9,-,N/A,,Scattered Clouds,280,2012-11-29 03:40:00
9:43 PM,62.6,55.4,77,30.01,10.0,WNW,3.5,-,N/A,,Clear,290,2012-11-29 04:43:00
10:42 PM,59.0,53.6,82,30.01,10.0,SW,6.9,-,N/A,,Clear,220,2012-11-29 05:42:00
11:54 PM,59.0,55.4,88,30.02,10.0,NNE,6.9,-,N/A,,Clear,20,2012-11-29 06:54:00